Terminal Aerodrome Forecast
Issued by NWS

Current Version | Previous Version | Text Only | Print | Product List | Glossary On
Versions: 1 2 3 4 5 6 7 8 9 10 11 12 13 14 15 16 17
437
FTUS43 KGRR 082049 AAA
TAFJXN
TAF AMD
KJXN 082049Z 0821/0918 27015G23KT 3SM -SHSN BKN025
      TEMPO 0821/0824 2SM -SHSN
     FM090300 28010KT 6SM -SHSN BR OVC020=

USA.gov is the U.S. government's official web portal to all federal, state and local government web resources and services.